createdAt,value
2022-08-27T00:01:43.054Z,4.65
2022-08-27T00:04:50.645Z,4.15
2022-08-27T00:07:55.210Z,4.33
2022-08-27T00:11:01.655Z,4.40
2022-08-27T00:14:08.199Z,4.47
2022-08-27T00:17:14.424Z,4.30
2022-08-27T00:20:43.099Z,4.12
2022-08-27T00:23:48.921Z,4.83
2022-08-27T00:26:57.471Z,4.08
2022-08-27T00:30:06.100Z,4.75
2022-08-27T00:33:11.676Z,4.72
2022-08-27T00:36:18.221Z,4.25
2022-08-27T00:39:24.480Z,4.45
2022-08-27T00:42:31.478Z,4.65
2022-08-27T00:45:38.481Z,4.10
2022-08-27T00:48:47.390Z,4.28
2022-08-27T00:51:53.959Z,4.42
2022-08-27T00:55:00.536Z,4.22
2022-08-27T00:58:17.445Z,4.37
2022-08-27T01:01:26.314Z,4.45
2022-08-27T01:04:34.383Z,4.30
2022-08-27T01:07:43.762Z,4.90
2022-08-27T01:10:52.340Z,4.33
2022-08-27T01:14:00.982Z,4.53
2022-08-27T01:17:13.377Z,4.17
2022-08-27T01:20:22.804Z,4.67
2022-08-27T01:24:09.118Z,4.95
2022-08-27T01:27:16.549Z,4.70
2022-08-27T01:30:22.978Z,5.10
2022-08-27T01:33:30.784Z,5.78
2022-08-27T01:36:35.711Z,5.72
2022-08-27T01:39:41.574Z,6.35
2022-08-27T01:42:54.494Z,5.03
2022-08-27T01:46:03.455Z,5.25
2022-08-27T01:49:11.541Z,4.87
2022-08-27T01:52:18.659Z,6.12
2022-08-27T01:55:26.345Z,15.98
2022-08-27T01:58:33.921Z,10.82
2022-08-27T02:01:39.679Z,6.70
2022-08-27T02:04:47.065Z,6.05
2022-08-27T02:07:54.040Z,5.17
2022-08-27T02:11:01.659Z,5.45
2022-08-27T02:14:12.926Z,6.83
2022-08-27T02:17:19.191Z,8.88
2022-08-27T02:20:29.189Z,13.60
2022-08-27T02:23:35.927Z,11.60
2022-08-27T02:26:42.195Z,9.28
2022-08-27T02:29:49.693Z,6.30
2022-08-27T02:32:56.695Z,6.17
2022-08-27T02:36:03.447Z,6.25
2022-08-27T02:39:09.506Z,6.20
2022-08-27T02:42:15.048Z,5.95
2022-08-27T02:45:21.333Z,6.00
2022-08-27T02:48:28.618Z,6.03
2022-08-27T02:51:33.752Z,6.65
2022-08-27T02:54:41.765Z,6.72
2022-08-27T02:57:50.473Z,6.45
2022-08-27T03:00:59.860Z,5.33
2022-08-27T03:04:05.579Z,5.90
2022-08-27T03:07:18.706Z,5.87
2022-08-27T03:10:21.793Z,6.47
2022-08-27T03:13:31.231Z,5.42
2022-08-27T03:16:36.882Z,5.87
2022-08-27T03:19:44.602Z,5.58
2022-08-27T03:22:50.147Z,6.33
2022-08-27T03:26:06.552Z,6.10
2022-08-27T03:29:12.732Z,6.60
2022-08-27T03:32:20.510Z,6.55
2022-08-27T03:35:29.565Z,6.87
2022-08-27T03:38:36.224Z,5.80
2022-08-27T03:41:54.111Z,5.75
2022-08-27T03:44:49.986Z,6.62
2022-08-27T03:47:59.375Z,6.00
2022-08-27T03:51:04.969Z,6.30
2022-08-27T03:54:10.819Z,6.50
2022-08-27T03:57:17.621Z,5.87
2022-08-27T04:00:24.953Z,6.60
2022-08-27T04:03:30.941Z,5.70
2022-08-27T04:06:36.397Z,5.92
2022-08-27T04:09:44.713Z,5.62
2022-08-27T04:12:50.926Z,6.58
2022-08-27T04:16:03.986Z,6.28
2022-08-27T04:19:22.915Z,7.30
2022-08-27T04:22:29.031Z,7.25
2022-08-27T04:25:35.760Z,6.40
2022-08-27T04:28:42.614Z,5.67
2022-08-27T04:31:50.692Z,6.30
2022-08-27T04:34:57.576Z,6.55
2022-08-27T04:38:04.457Z,6.75
2022-08-27T04:41:30.896Z,6.65
2022-08-27T04:44:37.987Z,5.62
2022-08-27T04:47:44.152Z,6.22
2022-08-27T04:50:49.785Z,5.62
2022-08-27T04:53:57.520Z,6.85
2022-08-27T04:57:05.511Z,6.08
2022-08-27T05:00:14.557Z,6.10
2022-08-27T05:03:21.925Z,6.55
2022-08-27T05:06:28.241Z,6.00
2022-08-27T05:09:34.135Z,5.53
2022-08-27T05:13:02.033Z,5.92
2022-08-27T05:16:17.946Z,6.20
2022-08-27T05:19:26.426Z,5.65
2022-08-27T05:22:32.297Z,6.22
2022-08-27T05:25:39.197Z,6.00
2022-08-27T05:28:44.622Z,5.92
2022-08-27T05:31:51.496Z,5.70
2022-08-27T05:34:58.074Z,5.70
2022-08-27T05:38:03.129Z,5.33
2022-08-27T05:41:23.727Z,5.80
2022-08-27T05:44:46.569Z,6.00
2022-08-27T05:47:44.867Z,5.67
2022-08-27T05:50:46.580Z,5.30
2022-08-27T05:53:53.175Z,5.15
2022-08-27T05:57:01.385Z,5.95
2022-08-27T06:00:27.565Z,5.42
2022-08-27T06:03:33.864Z,5.12
2022-08-27T06:06:42.219Z,5.67
2022-08-27T06:09:48.705Z,6.03
2022-08-27T06:12:57.020Z,5.70
2022-08-27T06:16:04.324Z,5.10
2022-08-27T06:19:12.885Z,6.50
2022-08-27T06:22:19.940Z,5.15
2022-08-27T06:25:25.963Z,5.47
2022-08-27T06:28:37.662Z,5.45
2022-08-27T06:31:44.469Z,4.28
2022-08-27T06:34:50.431Z,5.22
2022-08-27T06:37:56.753Z,5.05
2022-08-27T06:41:02.955Z,3.70
2022-08-27T06:44:09.469Z,4.47
2022-08-27T06:47:16.558Z,4.55
2022-08-27T06:50:28.938Z,4.60
2022-08-27T06:53:35.549Z,4.72
2022-08-27T06:56:40.800Z,4.70
2022-08-27T06:59:48.593Z,4.28
2022-08-27T07:02:54.576Z,4.50
2022-08-27T07:05:59.981Z,5.28
2022-08-27T07:09:05.857Z,4.95
2022-08-27T07:12:12.147Z,4.22
2022-08-27T07:15:21.748Z,5.20
2022-08-27T07:18:27.892Z,4.53
2022-08-27T07:21:33.329Z,4.65
2022-08-27T07:24:39.483Z,4.90
2022-08-27T07:27:46.254Z,4.22
2022-08-27T07:30:52.989Z,4.45
2022-08-27T07:33:53.410Z,4.85
2022-08-27T07:36:59.990Z,5.47
2022-08-27T07:40:06.672Z,5.05
2022-08-27T07:43:31.087Z,4.83
2022-08-27T07:46:40.091Z,4.55
2022-08-27T07:49:45.226Z,3.87
2022-08-27T07:52:53.197Z,3.22
2022-08-27T07:55:58.394Z,3.90
2022-08-27T07:59:06.446Z,3.40
2022-08-27T08:02:12.392Z,3.80
2022-08-27T08:05:20.995Z,3.60
2022-08-27T08:08:26.626Z,2.70
2022-08-27T08:11:33.670Z,3.33
2022-08-27T08:14:39.204Z,3.33
2022-08-27T08:17:47.310Z,3.77
2022-08-27T08:20:58.578Z,3.80
2022-08-27T08:24:04.094Z,4.10
2022-08-27T08:27:09.535Z,3.27
2022-08-27T08:30:09.362Z,2.70
2022-08-27T08:33:17.487Z,3.27
2022-08-27T08:36:27.168Z,3.27
2022-08-27T08:39:35.565Z,3.45
2022-08-27T08:42:59.424Z,3.72
2022-08-27T08:46:05.638Z,3.02
2022-08-27T08:49:13.459Z,4.17
2022-08-27T08:52:45.289Z,3.47
2022-08-27T08:56:17.074Z,3.35
2022-08-27T08:59:42.625Z,3.22
2022-08-27T09:02:49.114Z,3.22
2022-08-27T09:05:55.809Z,3.20
2022-08-27T09:09:02.023Z,2.52
2022-08-27T09:12:19.637Z,2.72
2022-08-27T09:15:40.039Z,2.60
2022-08-27T09:18:45.739Z,2.33
2022-08-27T09:22:32.027Z,2.20
2022-08-27T09:25:48.623Z,1.95
2022-08-27T09:29:14.426Z,2.40
2022-08-27T09:32:23.184Z,2.22
2022-08-27T09:38:44.671Z,2.30
2022-08-27T09:42:00.912Z,2.22
2022-08-27T09:45:08.552Z,2.10
2022-08-27T09:48:26.635Z,3.67
2022-08-27T09:51:43.131Z,2.45
2022-08-27T09:55:01.544Z,2.52
2022-08-27T09:58:08.971Z,2.33
2022-08-27T10:01:21.733Z,2.08
2022-08-27T10:04:30.242Z,2.75
2022-08-27T10:08:14.606Z,3.30
2022-08-27T10:11:33.419Z,2.40
2022-08-27T10:14:46.683Z,2.58
2022-08-27T10:18:17.500Z,1.98
2022-08-27T10:21:55.537Z,2.22
2022-08-27T10:25:11.328Z,2.12
2022-08-27T10:29:07.604Z,2.37
2022-08-27T10:32:52.257Z,2.00
2022-08-27T10:36:06.141Z,2.37
2022-08-27T10:39:22.647Z,2.45
2022-08-27T10:42:45.630Z,2.33
2022-08-27T10:46:14.195Z,2.27
2022-08-27T10:49:27.479Z,1.80
2022-08-27T10:56:03.676Z,2.20
2022-08-27T10:59:23.484Z,2.40
2022-08-27T11:02:42.659Z,2.30
2022-08-27T11:05:58.990Z,2.47
2022-08-27T11:09:14.930Z,3.25
2022-08-27T11:12:25.450Z,3.87
2022-08-27T11:15:42.839Z,2.10
2022-08-27T11:19:18.989Z,2.52
2022-08-27T11:22:36.515Z,2.60
2022-08-27T11:26:02.854Z,2.77
2022-08-27T11:29:15.856Z,2.70
2022-08-27T11:32:33.148Z,2.75
2022-08-27T11:35:46.607Z,3.20
2022-08-27T11:39:14.212Z,3.30
2022-08-27T11:42:45.143Z,3.25
2022-08-27T11:46:08.629Z,3.02
2022-08-27T11:52:23.338Z,3.17
2022-08-27T11:55:46.164Z,3.10
2022-08-27T11:58:52.662Z,3.17
2022-08-27T12:02:00.215Z,3.50
2022-08-27T12:05:05.732Z,2.95
2022-08-27T12:08:12.280Z,3.25
2022-08-27T12:11:29.386Z,3.05
2022-08-27T12:14:53.024Z,3.08
2022-08-27T12:18:25.264Z,3.02
2022-08-27T12:22:03.110Z,3.22
2022-08-27T12:25:10.382Z,3.60
2022-08-27T12:28:18.742Z,3.00
2022-08-27T12:31:23.540Z,3.05
2022-08-27T12:34:38.328Z,3.17
2022-08-27T12:37:48.278Z,3.22
2022-08-27T12:41:19.129Z,3.47
2022-08-27T12:44:24.643Z,3.62
2022-08-27T12:47:30.545Z,2.80
2022-08-27T12:50:45.081Z,4.05
2022-08-27T12:53:57.395Z,3.33
2022-08-27T12:57:13.061Z,3.40
2022-08-27T13:00:32.904Z,3.77
2022-08-27T13:03:54.276Z,3.35
2022-08-27T13:07:01.083Z,3.25
2022-08-27T13:10:08.560Z,2.80
2022-08-27T13:13:31.207Z,2.45
2022-08-27T13:16:40.072Z,2.85
2022-08-27T13:19:54.353Z,2.98
2022-08-27T13:23:00.478Z,3.00
2022-08-27T13:26:18.799Z,2.37
2022-08-27T13:29:25.536Z,2.35
2022-08-27T13:32:31.844Z,2.60
2022-08-27T13:35:39.777Z,2.50
2022-08-27T13:38:50.351Z,2.25
2022-08-27T13:41:59.836Z,2.55
2022-08-27T13:45:05.232Z,2.40
2022-08-27T13:48:12.092Z,2.47
2022-08-27T13:51:19.212Z,2.35
2022-08-27T13:54:26.803Z,3.00
2022-08-27T13:57:45.566Z,2.50
2022-08-27T14:00:53.515Z,2.67
2022-08-27T14:04:07.049Z,3.27
2022-08-27T14:07:16.536Z,2.67
2022-08-27T14:10:34.839Z,2.52
2022-08-27T14:13:43.401Z,2.70
2022-08-27T14:16:48.685Z,2.77
2022-08-27T14:19:57.549Z,2.55
2022-08-27T14:23:05.160Z,2.30
2022-08-27T14:26:15.060Z,2.58
2022-08-27T14:29:21.375Z,2.60
2022-08-27T14:32:27.719Z,2.52
2022-08-27T14:35:39.628Z,2.52
2022-08-27T14:38:47.651Z,3.10
2022-08-27T14:41:54.591Z,2.60
2022-08-27T14:44:59.344Z,2.20
2022-08-27T14:48:06.968Z,2.50
2022-08-27T14:51:20.667Z,2.47
2022-08-27T14:54:29.095Z,2.77
2022-08-27T14:57:34.985Z,2.85
2022-08-27T15:00:39.984Z,3.42
2022-08-27T15:03:46.928Z,3.05
2022-08-27T15:06:52.693Z,3.08
2022-08-27T15:10:00.796Z,3.47
2022-08-27T15:13:07.920Z,3.98
2022-08-27T15:16:16.016Z,3.05
2022-08-27T15:19:22.643Z,3.67
2022-08-27T15:22:36.431Z,4.08
2022-08-27T15:25:43.496Z,3.35
2022-08-27T15:28:48.287Z,3.20
2022-08-27T15:31:56.698Z,3.87
2022-08-27T15:35:03.903Z,3.75
2022-08-27T15:38:11.168Z,3.67
2022-08-27T15:41:17.315Z,4.12
2022-08-27T15:44:24.114Z,3.50
2022-08-27T15:47:29.516Z,4.72
2022-08-27T15:50:35.510Z,3.58
2022-08-27T15:53:40.945Z,3.30
2022-08-27T15:56:46.921Z,3.05
2022-08-27T15:59:52.126Z,3.47
2022-08-27T16:02:58.523Z,3.40
2022-08-27T16:06:05.709Z,3.10
2022-08-27T16:09:11.309Z,3.83
2022-08-27T16:12:26.785Z,3.50
2022-08-27T16:15:27.157Z,3.85
2022-08-27T16:18:32.895Z,3.42
2022-08-27T16:21:32.253Z,4.45
2022-08-27T16:24:38.319Z,3.70
2022-08-27T16:27:43.966Z,3.55
2022-08-27T16:30:51.056Z,3.40
2022-08-27T16:33:57.498Z,3.35
2022-08-27T16:37:05.310Z,3.55
2022-08-27T16:40:15.403Z,3.80
2022-08-27T16:43:22.605Z,3.60
2022-08-27T16:46:28.278Z,8.48
2022-08-27T16:49:52.790Z,3.98
2022-08-27T16:52:58.955Z,3.37
2022-08-27T16:56:07.379Z,7.65
2022-08-27T16:59:14.931Z,4.03
2022-08-27T17:02:21.483Z,3.08
2022-08-27T17:05:33.955Z,3.22
2022-08-27T17:08:47.757Z,3.77
2022-08-27T17:11:47.053Z,4.00
2022-08-27T17:14:53.629Z,4.10
2022-08-27T17:18:02.201Z,3.77
2022-08-27T17:21:07.798Z,3.50
2022-08-27T17:24:15.278Z,4.87
2022-08-27T17:27:21.562Z,4.62
2022-08-27T17:30:29.822Z,4.87
2022-08-27T17:33:53.829Z,4.62
2022-08-27T17:37:00.991Z,6.37
2022-08-27T17:40:07.456Z,5.90
2022-08-27T17:43:14.471Z,5.53
2022-08-27T17:46:22.003Z,6.70
2022-08-27T17:49:28.344Z,6.90
2022-08-27T17:52:36.618Z,6.80
2022-08-27T17:55:42.367Z,7.97
2022-08-27T17:58:48.894Z,6.72
2022-08-27T18:01:57.219Z,7.20
2022-08-27T18:05:04.133Z,6.60
2022-08-27T18:08:10.292Z,17.92
2022-08-27T18:11:19.790Z,19.90
2022-08-27T18:14:25.522Z,17.42
2022-08-27T18:17:31.255Z,18.45
2022-08-27T18:20:40.756Z,18.20
2022-08-27T18:23:49.850Z,19.85
2022-08-27T18:26:57.944Z,17.07
2022-08-27T18:30:05.659Z,17.45
2022-08-27T18:33:11.806Z,19.12
2022-08-27T18:36:19.080Z,18.17
2022-08-27T18:39:25.756Z,15.98
2022-08-27T18:42:32.545Z,17.02
2022-08-27T18:45:43.862Z,16.23
2022-08-27T18:48:51.101Z,16.62
2022-08-27T18:52:00.489Z,16.65
2022-08-27T18:55:07.962Z,17.12
2022-08-27T18:58:14.329Z,15.88
2022-08-27T19:01:22.623Z,16.40
2022-08-27T19:04:28.938Z,17.23
2022-08-27T19:07:39.058Z,15.38
2022-08-27T19:10:43.767Z,16.65
2022-08-27T19:13:50.680Z,16.10
2022-08-27T19:17:05.474Z,17.98
2022-08-27T19:20:10.902Z,14.25
2022-08-27T19:23:16.078Z,15.45
2022-08-27T19:26:30.347Z,13.18
2022-08-27T19:29:36.814Z,12.07
2022-08-27T19:32:42.075Z,11.65
2022-08-27T19:35:52.366Z,12.90
2022-08-27T19:39:08.068Z,12.53
2022-08-27T19:42:16.552Z,11.55
2022-08-27T19:45:28.648Z,14.07
2022-08-27T19:48:35.840Z,12.43
2022-08-27T19:51:42.703Z,10.88
2022-08-27T19:55:10.235Z,10.13
2022-08-27T19:57:58.652Z,9.23
2022-08-27T20:01:05.079Z,10.98
2022-08-27T20:04:10.813Z,9.95
2022-08-27T20:07:15.975Z,9.05
2022-08-27T20:10:21.617Z,10.10
2022-08-27T20:13:33.020Z,10.90
2022-08-27T20:16:38.019Z,11.78
2022-08-27T20:19:47.717Z,11.40
2022-08-27T20:22:55.505Z,9.63
2022-08-27T20:26:01.678Z,9.50
2022-08-27T20:29:03.879Z,10.40
2022-08-27T20:32:03.740Z,8.98
2022-08-27T20:35:11.280Z,10.10
2022-08-27T20:38:16.836Z,8.90
2022-08-27T20:41:26.060Z,8.33
2022-08-27T20:44:32.429Z,8.23
2022-08-27T20:47:39.417Z,8.88
2022-08-27T20:50:46.695Z,8.63
2022-08-27T20:53:52.978Z,8.15
2022-08-27T20:56:59.543Z,7.92
2022-08-27T21:00:23.927Z,8.48
2022-08-27T21:03:31.031Z,8.20
2022-08-27T21:06:36.797Z,7.92
2022-08-27T21:09:55.447Z,6.95
2022-08-27T21:12:50.234Z,7.75
2022-08-27T21:15:56.916Z,7.17
2022-08-27T21:19:03.687Z,7.00
2022-08-27T21:22:08.816Z,6.92
2022-08-27T21:25:15.095Z,6.78
2022-08-27T21:28:22.172Z,7.28
2022-08-27T21:31:28.520Z,6.83
2022-08-27T21:34:35.338Z,7.37
2022-08-27T21:37:41.298Z,6.40
2022-08-27T21:40:46.880Z,6.62
2022-08-27T21:43:54.239Z,7.55
2022-08-27T21:47:00.811Z,7.42
2022-08-27T21:50:08.497Z,8.23
2022-08-27T21:53:14.257Z,7.20
2022-08-27T21:56:20.414Z,7.40
2022-08-27T21:59:26.974Z,7.03
2022-08-27T22:02:40.335Z,7.50
2022-08-27T22:05:45.157Z,6.80
2022-08-27T22:08:52.042Z,6.30
2022-08-27T22:11:59.418Z,7.17
2022-08-27T22:15:09.267Z,6.17
2022-08-27T22:18:15.837Z,6.95
2022-08-27T22:21:21.501Z,7.80
2022-08-27T22:24:27.881Z,7.50
2022-08-27T22:27:34.854Z,7.55
2022-08-27T22:30:41.852Z,8.33
2022-08-27T22:33:49.124Z,8.08
2022-08-27T22:36:56.819Z,9.05
2022-08-27T22:40:03.535Z,9.63
2022-08-27T22:43:10.378Z,9.68
2022-08-27T22:46:17.499Z,9.70
2022-08-27T22:49:24.032Z,11.10
2022-08-27T22:52:29.328Z,10.95
2022-08-27T22:55:38.000Z,10.30
2022-08-27T22:58:46.265Z,11.43
2022-08-27T23:01:55.268Z,12.18
2022-08-27T23:05:03.566Z,13.15
2022-08-27T23:08:09.053Z,15.50
2022-08-27T23:11:15.901Z,15.45
2022-08-27T23:14:22.789Z,15.98
2022-08-27T23:17:30.877Z,16.70
2022-08-27T23:20:37.857Z,15.23
2022-08-27T23:23:44.634Z,16.02
2022-08-27T23:27:08.631Z,15.80
2022-08-27T23:30:17.040Z,15.78
2022-08-27T23:33:17.842Z,14.78
2022-08-27T23:36:18.197Z,15.30
2022-08-27T23:39:23.857Z,15.08
2022-08-27T23:42:30.221Z,14.13
2022-08-27T23:45:40.584Z,13.90
2022-08-27T23:48:46.671Z,13.35
2022-08-27T23:51:52.290Z,13.08
2022-08-27T23:54:58.153Z,12.45
2022-08-27T23:58:04.677Z,12.50
